createdAt,value
2022-08-01T00:04:48.330Z,24
2022-08-01T00:10:00.157Z,24
2022-08-01T00:15:11.915Z,24
2022-08-01T00:20:23.888Z,24
2022-08-01T00:25:35.857Z,24
2022-08-01T00:30:47.935Z,24
2022-08-01T00:36:00.793Z,24
2022-08-01T00:41:12.604Z,24
2022-08-01T00:46:24.741Z,24
2022-08-01T00:51:36.870Z,24
2022-08-01T00:56:49.071Z,23
2022-08-01T01:02:01.542Z,23
2022-08-01T01:07:13.880Z,23
2022-08-01T01:12:25.894Z,23
2022-08-01T01:17:52.401Z,23
2022-08-01T01:23:01.700Z,23
2022-08-01T01:28:13.911Z,22
2022-08-01T01:33:26.002Z,23
2022-08-01T01:38:38.160Z,23
2022-08-01T01:43:50.270Z,23
2022-08-01T01:49:02.749Z,23
2022-08-01T01:54:15.117Z,23
2022-08-01T01:59:27.262Z,23
2022-08-01T02:04:39.330Z,23
2022-08-01T02:09:51.530Z,23
2022-08-01T02:15:03.923Z,23
2022-08-01T02:20:16.101Z,22
2022-08-01T02:25:28.071Z,22
2022-08-01T02:30:40.311Z,22
2022-08-01T02:36:34.005Z,22
2022-08-01T02:41:40.871Z,22
2022-08-01T02:46:52.682Z,22
2022-08-01T02:52:05.755Z,22
2022-08-01T02:57:21.456Z,22
2022-08-01T03:02:33.062Z,22
2022-08-01T03:07:49.525Z,22
2022-08-01T03:13:03.702Z,22
2022-08-01T03:18:15.902Z,22
2022-08-01T03:23:38.893Z,21
2022-08-01T03:28:49.243Z,21
2022-08-01T03:34:06.483Z,21
2022-08-01T03:39:18.453Z,21
2022-08-01T03:44:30.482Z,21
2022-08-01T03:49:42.601Z,21
2022-08-01T03:54:54.682Z,21
2022-08-01T04:00:06.783Z,21
2022-08-01T04:05:18.823Z,21
2022-08-01T04:10:30.846Z,21
2022-08-01T04:15:43.063Z,21
2022-08-01T04:20:55.163Z,21
2022-08-01T04:26:07.390Z,21
2022-08-01T04:31:19.334Z,21
2022-08-01T04:36:31.510Z,21
2022-08-01T04:41:43.702Z,21
2022-08-01T04:46:55.803Z,21
2022-08-01T04:52:18.891Z,21
2022-08-01T04:57:33.512Z,21
2022-08-01T05:02:45.702Z,21
2022-08-01T05:07:57.831Z,21
2022-08-01T05:13:09.843Z,21
2022-08-01T05:18:29.142Z,21
2022-08-01T05:23:43.993Z,21
2022-08-01T05:28:55.411Z,21
2022-08-01T05:34:15.703Z,21
2022-08-01T05:39:28.755Z,21
2022-08-01T05:44:40.742Z,21
2022-08-01T05:49:53.065Z,21
2022-08-01T05:55:05.507Z,21
2022-08-01T06:00:17.779Z,21
2022-08-01T06:05:29.997Z,22
2022-08-01T06:10:42.139Z,22
2022-08-01T06:15:54.590Z,22
2022-08-01T06:21:06.918Z,22
2022-08-01T06:26:19.158Z,22
2022-08-01T06:31:34.559Z,23
2022-08-01T06:36:46.081Z,23
2022-08-01T06:41:58.449Z,23
2022-08-01T06:47:10.909Z,23
2022-08-01T06:52:23.540Z,24
2022-08-01T06:57:36.030Z,24
2022-08-01T07:02:48.440Z,24
2022-08-01T07:08:01.110Z,24
2022-08-01T07:13:13.480Z,24
2022-08-01T07:18:26.941Z,25
2022-08-01T07:23:46.519Z,25
2022-08-01T07:29:03.421Z,25
2022-08-01T07:34:15.799Z,25
2022-08-01T07:39:28.818Z,25
2022-08-01T07:44:41.258Z,26
2022-08-01T07:49:53.588Z,26
2022-08-01T07:55:06.168Z,26
2022-08-01T08:00:18.665Z,26
2022-08-01T08:06:00.888Z,27
2022-08-01T08:11:09.039Z,27
2022-08-01T08:16:21.409Z,27
2022-08-01T08:21:34.569Z,27
2022-08-01T08:26:52.638Z,28
2022-08-01T08:32:06.771Z,28
2022-08-01T08:37:21.458Z,28
2022-08-01T08:42:33.448Z,28
2022-08-01T08:47:46.100Z,28
2022-08-01T08:52:58.780Z,29
2022-08-01T08:58:11.671Z,29
2022-08-01T09:03:24.660Z,29
2022-08-01T09:08:37.469Z,29
2022-08-01T09:13:50.320Z,30
2022-08-01T09:19:02.921Z,29
2022-08-01T09:24:30.777Z,30
2022-08-01T09:29:44.405Z,30
2022-08-01T09:35:13.099Z,30
2022-08-01T09:40:28.390Z,31
2022-08-01T09:45:52.931Z,31
2022-08-01T09:51:10.479Z,31
2022-08-01T09:56:25.662Z,31
2022-08-01T10:01:42.695Z,32
2022-08-01T10:06:56.891Z,32
2022-08-01T10:12:16.890Z,32
2022-08-01T10:22:42.044Z,32
2022-08-01T10:27:55.740Z,32
2022-08-01T10:33:08.329Z,32
2022-08-01T10:38:59.749Z,32
2022-08-01T10:44:13.559Z,32
2022-08-01T10:49:26.508Z,33
2022-08-01T10:54:53.460Z,33
2022-08-01T11:00:03.889Z,33
2022-08-01T11:05:20.210Z,33
2022-08-01T11:10:40.603Z,34
2022-08-01T11:16:19.423Z,34
2022-08-01T11:22:02.091Z,34
2022-08-01T11:27:11.119Z,35
2022-08-01T11:32:24.670Z,37
2022-08-01T11:37:38.710Z,39
2022-08-01T11:48:04.860Z,40
2022-08-01T12:03:46.461Z,40
2022-08-01T12:09:12.007Z,41
2022-08-01T12:14:30.609Z,42
2022-08-01T12:35:19.499Z,41
2022-08-01T12:40:31.570Z,42
2022-08-01T12:50:54.967Z,41
2022-08-01T13:01:18.980Z,40
2022-08-01T13:06:31.885Z,41
2022-08-01T13:22:06.187Z,39
2022-08-01T13:42:52.191Z,38
2022-08-01T14:13:58.378Z,37
2022-08-01T14:30:04.854Z,37
2022-08-01T14:35:13.355Z,37
2022-08-01T14:45:36.781Z,37
2022-08-01T14:56:00.105Z,37
2022-08-01T15:11:35.216Z,36
2022-08-01T15:16:47.785Z,36
2022-08-01T15:22:02.336Z,36
2022-08-01T15:27:14.212Z,36
2022-08-01T15:53:11.154Z,35
2022-08-01T15:58:23.776Z,35
2022-08-01T16:03:36.434Z,35
2022-08-01T16:13:59.614Z,35
2022-08-01T16:19:20.155Z,35
2022-08-01T16:24:33.704Z,35
2022-08-01T16:29:46.435Z,35
2022-08-01T16:35:01.975Z,35
2022-08-01T16:50:36.401Z,35
2022-08-01T16:55:51.438Z,35
2022-08-01T17:06:14.238Z,35
2022-08-01T17:16:38.966Z,35
2022-08-01T17:27:02.158Z,34
2022-08-01T17:37:25.840Z,34
2022-08-01T17:42:38.557Z,34
2022-08-01T17:47:51.987Z,34
2022-08-01T18:18:56.957Z,33
2022-08-01T18:39:40.029Z,32
2022-08-01T18:50:07.517Z,31
2022-08-01T18:55:20.036Z,31
2022-08-01T19:00:32.557Z,31
2022-08-01T19:05:44.968Z,30
2022-08-01T19:10:57.597Z,30
2022-08-01T19:21:20.407Z,30
2022-08-01T19:26:33.188Z,29
2022-08-01T19:31:49.848Z,29
2022-08-01T19:37:04.328Z,29
2022-08-01T19:42:19.878Z,29
2022-08-01T19:47:58.058Z,29
2022-08-01T19:53:06.926Z,29
2022-08-01T19:58:29.119Z,29
2022-08-01T20:03:39.993Z,28
2022-08-01T20:14:02.476Z,28
2022-08-01T20:19:18.088Z,28
2022-08-01T20:24:32.092Z,28
2022-08-01T20:29:44.468Z,28
2022-08-01T20:34:57.808Z,28
2022-08-01T20:40:13.657Z,28
2022-08-01T20:45:30.668Z,27
2022-08-01T20:50:55.362Z,27
2022-08-01T20:56:05.501Z,27
2022-08-01T21:01:18.211Z,27
2022-08-01T21:06:30.578Z,27
2022-08-01T21:11:43.009Z,27
2022-08-01T21:16:55.408Z,27
2022-08-01T21:22:13.723Z,27
2022-08-01T21:27:34.651Z,27
2022-08-01T21:32:45.990Z,27
2022-08-01T21:37:58.409Z,27
2022-08-01T21:43:10.733Z,27
2022-08-01T21:48:31.488Z,27
2022-08-01T21:53:49.089Z,26
2022-08-01T21:59:04.566Z,26
2022-08-01T22:04:16.669Z,26
2022-08-01T22:09:29.150Z,26
2022-08-01T22:19:54.339Z,26
2022-08-01T22:25:06.170Z,26
2022-08-01T22:30:18.590Z,26
2022-08-01T22:35:30.879Z,26
2022-08-01T22:45:53.020Z,26
2022-08-01T22:51:05.148Z,26
2022-08-01T22:56:17.429Z,25
2022-08-01T23:01:29.804Z,25
2022-08-01T23:06:42.049Z,25
2022-08-01T23:11:54.440Z,25
2022-08-01T23:17:29.862Z,25
2022-08-01T23:22:38.549Z,25
2022-08-01T23:28:06.638Z,25
2022-08-01T23:33:15.808Z,25
2022-08-01T23:38:27.838Z,25
2022-08-01T23:43:52.899Z,25
2022-08-01T23:49:02.818Z,25
2022-08-01T23:54:16.858Z,25
2022-08-01T23:59:54.430Z,24
